| Record Date MM/DD/YYYY | Record Julian Date NNN day of the year | Air Temperature Max (Degrees Fahrenheit F) | Time Max Air Temperature HH:MM:SS This is the time of max air temperature standard time. | Air Temperature Min (Degrees Fahrenheit F) | Time Min Air Temperature HH:MM:SS This is the time of min air temperature standard time. | Air Temperature Observed (Degrees Fahrenheit F) This is an instantaneous reading for air temperature at 7:00:00 standard time. | Relative Humidity Max (Percent) | Time Max Relative Humidity HH:MM:SS This is the time of max relative humidity standard time. | Relative Humidity Min (Percent) | Time Min Relative Humidity HH:MM:SS This is the time of min relative humidity standard time. | Relative Humidity Observed (Percent) This is an instantaneous reading at 7:00:00 standard time. | Precipitation (Inches n.nn) total rain fall that occurred for the day. | Pan Evaporation (Inches n.nn) total evaporation that occured for the day. | Wind Run (Miles) Wind travel for the day. | Wind Speed (Miles Per Hour) Resultant / Average speed for the day. | Wind Direction (Degrees) Resultant Direction for the day | Solar Radiation (Langley's) that occurred for the day. | Soil Temperature Max at 2 inch depth (Degrees Fahrenheit F) that occurred during the day. | Time Max Soil temperature at 2 inches HH:MM:SS This is the time of max 2 inch soil temperature standard time. | Soil Temperature Min at 2 inch depth (Degrees Fahrenheit F) that occurred during the day. | Time Min Soil temperature at 2 inches HH:MM:SS This is the time of min 2 inch soil temperature standard time. | Soil Temperature Observed at 2 inch depth (Degrees Fahrenheit F) This is an instantaneous reading 2 inch soil temperature at 7:00:00 standard time. | Soil Temperature Max at 4 inch depth (Degrees Fahrenheit F) that occurred during the day. | Time Max Soil temperature at 4 inches HH:MM:SS This is the time of max 4 inch soil temperature standard time. | Soil Temperature Min at 4 inch depth (Degrees Fahrenheit F) that occurred during the day. | Time Min Soil temperature at 4 inches HH:MM:SS This is the time of min 4 inch soil temperature standard time. | Soil Temperature Observed at 4 inch depth (Degrees Fahrenheit F) This is an instantaneous reading 4 inch soil temperature at 7:00:00 standard time. | DD50 Degree Days 50 Fahrenheit. | Adjusted DD50 Degree Days 50 Fahrenheit adjusted for latitude. | DD60 Degree Days 60 Fahrenheit. |
|---|---|---|---|---|---|---|---|---|---|---|---|---|---|---|---|---|---|---|---|---|---|---|---|---|---|---|---|---|---|---|
| 04/06/2026 | 96 | 66 | 15:41:02 | 52 | 20:21:04 | 55 | 75 | 20:20:04 | 35 | 14:05:01 | 64 | 0 | 120 | 5.0 | 11 | 309 | 68 | 0:00:01 | 64 | 23:59:04 | 66 | 68 | 0:00:00 | 65 | 23:52:01 | 67 | 9 | 9.97 | 0 | |
| 04/07/2026 | 97 | 78 | 15:44:01 | 47 | 4:31:01 | 54 | 75 | 4:34:00 | 22 | 13:47:03 | 65 | 0 | 82 | 3.4 | 37 | 574 | 68 | 15:09:00 | 63 | 6:45:04 | 63 | 67 | 16:09:05 | 63 | 7:26:05 | 63 | 12.5 | 13.5 | 2.5 | |
| 04/08/2026 | 98 | 79 | 14:20:03 | 55 | 5:16:00 | 56 | 86 | 21:56:02 | 30 | 11:29:04 | 65 | 0 | 81 | 3.4 | 76 | 546 | 69 | 15:12:04 | 63 | 6:41:02 | 63 | 68 | 16:27:05 | 64 | 6:43:04 | 64 | 17 | 18.03 | 7 | |
| 04/09/2026 | 99 | 78 | 14:24:01 | 56 | 5:52:00 | 60 | 94 | 23:47:03 | 46 | 13:31:00 | 64 | 0 | 75 | 3.1 | 96 | 504 | 69 | 14:49:03 | 65 | 6:33:04 | 65 | 68 | 15:42:02 | 65 | 7:02:05 | 65 | 17 | 18.06 | 7 | |
| 04/10/2026 | 100 | 81 | 14:49:02 | 57 | 0:02:03 | 61 | 95 | 0:56:04 | 45 | 14:35:03 | 80 | 0 | 74 | 3.1 | 92 | 452 | 70 | 15:01:01 | 65 | 6:28:00 | 65 | 69 | 15:31:05 | 65 | 6:46:04 | 65 | 19 | 20.09 | 9 | |
| 04/11/2026 | 101 | 83 | 13:57:05 | 56 | 5:39:03 | 61 | 97 | 6:00:02 | 35 | 13:26:03 | 94 | 0 | 56 | 2.3 | 106 | 563 | 71 | 15:06:00 | 65 | 6:11:03 | 65 | 70 | 15:52:01 | 66 | 6:35:03 | 66 | 19.5 | 20.61 | 9.5 | |
| 04/12/2026 | 102 | 81 | 14:31:00 | 56 | 4:33:02 | 60 | 97 | 7:05:05 | 41 | 16:17:04 | 97 | 0 | 115 | 4.8 | 136 | 496 | 70 | 15:07:02 | 65 | 4:07:04 | 66 | 69 | 15:41:03 | 66 | 5:23:01 | 66 | 18.5 | 19.64 | 8.5 | |
| 04/13/2026 | 103 | 83 | 14:45:00 | 60 | 2:34:05 | 66 | 97 | 3:52:01 | 44 | 14:27:04 | 89 | 0 | 90 | 3.7 | 151 | 516 | 72 | 15:26:02 | 66 | 6:21:04 | 66 | 70 | 16:03:01 | 67 | 6:41:02 | 67 | 21.5 | 22.67 | 11.5 | |
| 04/14/2026 | 104 | 83 | 14:30:01 | 59 | 5:47:05 | 65 | 97 | 6:28:04 | 26 | 15:23:00 | 95 | 0 | 88 | 3.7 | 149 | 594 | 72 | 14:31:03 | 66 | 6:22:05 | 67 | 71 | 15:23:03 | 67 | 6:46:04 | 67 | 21 | 22.2 | 11 | |
| 04/15/2026 | 105 | 82 | 13:32:02 | 59 | 4:11:00 | 65 | 97 | 6:33:03 | 47 | 17:21:02 | 96 | 0 | 98 | 4.1 | 154 | 498 | 72 | 15:00:05 | 67 | 5:15:05 | 67 | 71 | 16:16:05 | 68 | 6:15:03 | 68 | 20.5 | 21.72 | 10.5 | |
| 04/16/2026 | 106 | 86 | 13:51:04 | 61 | 5:21:03 | 70 | 97 | 6:09:04 | 35 | 11:09:00 | 95 | 0 | 51 | 2.1 | 173 | 513 | 73 | 14:16:02 | 67 | 6:16:02 | 68 | 72 | 16:28:03 | 68 | 6:33:00 | 68 | 23.5 | 24.75 | 13.5 | |
| 04/17/2026 | 107 | 86 | 14:17:00 | 61 | 5:48:02 | 68 | 97 | 4:45:01 | 40 | 14:12:01 | 94 | 0 | 66 | 2.8 | 168 | 546 | 74 | 14:40:02 | 68 | 5:57:04 | 68 | 72 | 16:12:03 | 68 | 6:30:05 | 68 | 23.5 | 24.78 | 13.5 | |
| 04/18/2026 | 108 | 85 | 14:27:04 | 63 | 2:09:01 | 68 | 96 | 6:01:03 | 51 | 14:36:05 | 93 | 0 | 63 | 2.6 | 202 | 414 | 74 | 15:07:04 | 68 | 6:13:05 | 69 | 72 | 17:00:02 | 69 | 6:50:00 | 69 | 24 | 25.3 | 14 | |
| 04/19/2026 | 109 | 70 | 0:00:02 | 49 | 23:54:05 | 52 | 92 | 5:36:03 | 36 | 14:25:05 | 83 | 0.06 | 128 | 5.3 | 1 | 395 | 71 | 0:00:00 | 65 | 23:59:03 | 68 | 71 | 0:00:00 | 66 | 23:56:01 | 69 | 9.5 | 10.83 | 0 | |
| 04/20/2026 | 110 | 79 | 15:13:03 | 44 | 5:34:01 | 53 | 88 | 0:37:00 | 22 | 14:53:02 | 68 | 0 | 60 | 2.5 | 52 | 553 | 70 | 15:12:00 | 63 | 6:23:01 | 63 | 69 | 16:21:03 | 64 | 6:52:02 | 64 | 11.5 | 12.85 | 1.5 | |
| 04/21/2026 | 111 | 78 | 11:16:04 | 51 | 0:46:04 | 59 | 91 | 0:30:03 | 29 | 10:24:01 | 58 | 0 | 84 | 3.5 | 99 | 373 | 68 | 14:58:03 | 63 | 5:47:05 | 63 | 67 | 15:15:04 | 64 | 7:03:02 | 64 | 14.5 | 15.88 | 4.5 | |
| 04/22/2026 | 112 | 82 | 13:35:03 | 61 | 5:53:02 | 62 | 92 | 23:54:01 | 45 | 13:30:04 | 74 | 0 | 94 | 3.9 | 113 | 438 | 71 | 15:25:05 | 66 | 5:09:02 | 66 | 70 | 16:25:01 | 66 | 6:39:00 | 66 | 21.5 | 22.9 | 11.5 | |
| 04/23/2026 | 113 | 83 | 13:39:05 | 59 | 5:15:04 | 65 | 96 | 3:27:04 | 38 | 13:40:02 | 89 | 0 | 98 | 4.1 | 129 | 574 | 72 | 15:04:03 | 66 | 5:52:05 | 66 | 71 | 15:26:00 | 67 | 6:22:03 | 67 | 21 | 22.43 | 11 | |
| 04/24/2026 | 114 | 85 | 12:51:00 | 62 | 1:55:03 | 68 | 97 | 6:33:00 | 49 | 12:52:01 | 97 | 0.05 | 99 | 4.1 | 147 | 438 | 73 | 15:44:05 | 68 | 2:50:00 | 68 | 72 | 16:05:01 | 68 | 6:06:04 | 68 | 23.5 | 24.95 | 13.5 | |
| 04/25/2026 | 115 | 83 | 15:46:05 | 63 | 7:22:04 | 63 | 95 | 4:10:05 | 53 | 14:17:01 | 94 | 1.51 | 80 | 3.3 | 197 | 447 | 73 | 16:12:04 | 68 | 6:23:05 | 68 | 72 | 17:43:00 | 68 | 8:11:00 | 69 | 23 | 24.47 | 13 | |
| 04/26/2026 | 116 | 84 | 14:52:02 | 65 | 8:51:03 | 71 | 96 | 7:34:05 | 55 | 12:14:04 | 96 | 0.4 | 52 | 2.2 | 182 | 360 | 74 | 15:59:05 | 70 | 9:08:00 | 71 | 73 | 16:28:01 | 70 | 9:50:01 | 71 | 24.5 | 26 | 14.5 | |
| 04/27/2026 | 117 | 87 | 13:23:05 | 68 | 1:08:02 | 73 | 96 | 5:26:01 | 46 | 13:30:05 | 93 | 0 | 135 | 5.6 | 152 | 507 | 75 | 13:50:03 | 71 | 3:04:02 | 71 | 73 | 16:24:02 | 71 | 5:05:02 | 71 | 27.5 | 27.52 | 17.5 | |
| 04/28/2026 | 118 | 87 | 13:46:05 | 68 | 1:58:00 | 73 | 96 | 4:26:02 | 52 | 13:47:05 | 93 | 0 | 119 | 4.9 | 165 | 497 | 76 | 14:01:04 | 71 | 4:23:04 | 72 | 75 | 16:25:02 | 71 | 6:32:05 | 71 | 27.5 | 27.54 | 17.5 | |
| 04/29/2026 | 119 | 88 | 12:54:03 | 66 | 21:01:03 | 72 | 96 | 6:19:02 | 49 | 13:45:04 | 96 | 2.51 | 85 | 3.5 | 179 | 465 | 77 | 14:04:04 | 71 | 23:22:05 | 72 | 75 | 14:51:04 | 71 | 23:47:03 | 72 | 27 | 27.56 | 17 | |
| 04/30/2026 | 120 | 74 | 15:24:01 | 63 | 23:51:01 | 67 | 96 | 6:22:05 | 80 | 15:20:05 | 95 | 0.23 | 70 | 2.9 | 26 | 164 | 73 | 15:39:03 | 71 | 5:20:05 | 71 | 72 | 16:27:04 | 71 | 6:15:05 | 71 | 18.5 | 20.09 | 8.5 | |
| 05/01/2026 | 121 | 63 | 0:00:03 | 52 | 23:57:04 | 61 | 96 | 20:48:02 | 85 | 13:36:04 | 95 | 2.16 | 99 | 4.1 | 27 | 79 | 71 | 0:00:00 | 66 | 23:58:02 | 70 | 72 | 0:00:01 | 67 | 23:59:01 | 71 | 7.5 | 9.11 | 0 | |
| 05/02/2026 | 122 | 73 | 15:07:02 | 52 | 0:06:01 | 54 | 95 | 0:49:04 | 33 | 15:00:04 | 94 | 0.22 | 113 | 4.7 | 356 | 601 | 70 | 14:56:00 | 65 | 5:32:04 | 65 | 69 | 16:22:01 | 66 | 7:39:03 | 66 | 12.5 | 14.13 | 2.5 | |
| 05/03/2026 | 123 | 77 | 15:34:04 | 45 | 4:44:00 | 60 | 93 | 4:46:04 | 32 | 14:41:00 | 69 | 0 | 41 | 1.7 | 343 | 644 | 71 | 15:41:02 | 63 | 6:16:03 | 64 | 70 | 16:33:04 | 65 | 6:54:00 | 65 | 11 | 12.65 | 1 | |
| 05/04/2026 | 124 | 79 | 14:18:03 | 51 | 4:13:02 | 64 | 93 | 4:30:04 | 34 | 14:23:05 | 67 | 0 | 66 | 2.7 | 194 | 635 | 71 | 15:17:03 | 65 | 6:11:00 | 65 | 70 | 16:39:02 | 66 | 6:52:05 | 66 | 15 | 16.67 | 5 | |
| 05/05/2026 | 125 | 83 | 13:14:05 | 55 | 1:58:03 | 66 | 93 | 23:29:00 | 52 | 13:53:01 | 80 | 0 | 108 | 4.5 | 160 | 487 | 72 | 14:15:02 | 66 | 5:46:00 | 66 | 71 | 16:10:00 | 67 | 6:26:01 | 67 | 19 | 20.69 | 9 | |
| Average | 80.2 | 57.2 | 63.07 | 93.37 | 42.9 | 84.4 | 0.24 | 86.33 | 472.73 | 71.67 | 66.33 | 66.9 | 70.63 | 66.97 | 67.37 | 18.7 | 19.92 | 8.83 | ||||||||||||
| Total | 7.14 | 561 | 597.59 | 265 |